PATK/TKA METAR and TAF weather

Enter ICAO airport designator
Station Type Date Time Source
PATK METAR 2019/08/18 23:53 UTC NOAA

PATK 182353Z 04015G27KT 10SM CLR 19/M03 A3008 RMK AO2 PK WND 04029/2306 SLP187 T01941028 10194 20150 56022


Station Type Date Time Source
PATK Decoded METAR 2019/08/18 23:53 UTC NOAA

Station name not available
Aug 18, 2019 - 07:53 PM EDT / 2019.08.18 2353 UTC
Wind: from the NE (040 degrees) at 17 MPH (15 KT) gusting to 31 MPH (27 KT):0
Visibility: 10 mile(s):0
Sky conditions: clear
Temperature: 66.9 F (19.4 C)
Dew Point: 27.0 F (-2.8 C)
Relative Humidity: 22%
Pressure (altimeter): 30.08 in. Hg (1018 hPa)
Pressure tendency: 0.06 inches (2.2 hPa) lower than three hours ago
ob: PATK 182353Z 04015G27KT 10SM CLR 19/M03 A3008 RMK AO2 PK WND 04029/2306 SLP187 T01941028 10194 20150 56022
cycle: 0

Station Type Date Time Source
PATK TAF 2019/08/19 06:24 UTC NOAA

TAF PATK 190521Z 1906/2006 01008KT P6SM SKC
AMD NOT SKED

Example: see airport list